createdAt,value
2022-09-28T06:22:10.119Z,20.00
2022-09-28T06:37:29.067Z,21.70
2022-09-28T06:52:35.433Z,22.50
2022-09-28T07:07:51.063Z,22.90
2022-09-28T07:23:19.346Z,23.20
2022-09-28T07:38:44.000Z,23.40
2022-09-28T07:53:49.100Z,23.60
2022-09-28T08:09:12.362Z,23.70
2022-09-28T08:24:55.412Z,23.80
2022-09-28T08:40:00.048Z,23.90
2022-09-28T08:55:33.686Z,23.90
2022-09-28T09:10:50.590Z,24.00
2022-09-28T09:26:04.728Z,24.10
2022-09-28T09:41:20.107Z,24.10
2022-09-28T09:56:49.022Z,24.20
2022-09-28T10:12:21.271Z,24.40
2022-09-28T10:27:30.688Z,24.50
2022-09-28T10:42:36.186Z,24.50
2022-09-28T10:57:42.531Z,24.50
2022-09-28T11:12:50.571Z,24.50
2022-09-28T11:28:01.376Z,24.50
2022-09-28T11:43:16.943Z,24.50
2022-09-28T11:58:29.086Z,24.50
2022-09-28T12:13:39.894Z,24.50
2022-09-28T12:28:49.808Z,24.50
2022-09-28T12:44:13.170Z,24.60
2022-09-28T12:59:26.632Z,24.60
2022-09-28T13:15:08.715Z,24.70
2022-09-28T13:30:17.195Z,24.60
2022-09-28T13:45:51.537Z,24.50
2022-09-28T14:01:03.167Z,24.50
2022-09-28T14:16:24.718Z,24.50
2022-09-28T14:31:30.407Z,24.50
2022-09-28T14:46:37.939Z,24.50
2022-09-28T15:01:52.006Z,24.50
2022-09-28T15:16:58.332Z,24.50
2022-09-28T15:32:04.054Z,24.40
2022-09-28T15:47:15.061Z,24.30
2022-09-28T16:02:22.582Z,24.30
2022-09-28T16:17:32.378Z,24.20
2022-09-28T16:32:41.769Z,24.20
2022-09-28T16:47:47.364Z,24.20
2022-09-28T17:02:52.668Z,24.00
2022-09-28T17:17:57.240Z,24.00
2022-09-28T17:33:01.750Z,24.20
2022-09-28T17:48:06.360Z,24.20
2022-09-28T18:03:14.775Z,24.20
2022-09-28T18:18:19.348Z,24.30
